Time;durP1;ratioP1;P1;durP2;ratioP2;P2;SDS_P1;SDS_P2;PMS_P1;PMS_P2;Temp;Humidity;BMP_temperature;BMP_pressure;BME280_temperature;BME280_humidity;BME280_pressure;Samples;Min_cycle;Max_cycle;Signal;HPM_P1;HPM_P2
2022/10/12 00:00:24;;;;;;;6.47;2.53;;;7.90;99.90;;;;;;5050638;28;20080;-74
2022/10/12 00:02:50;;;;;;;6.38;2.47;;;7.80;99.90;;;;;;5051276;28;20077;-74
2022/10/12 00:05:16;;;;;;;10.23;2.22;;;7.80;99.90;;;;;;5034926;28;20513;-75
2022/10/12 00:07:42;;;;;;;7.35;2.40;;;7.80;99.90;;;;;;5051303;28;20487;-75
2022/10/12 00:10:08;;;;;;;4.00;1.77;;;7.80;99.90;;;;;;5050785;28;20301;-74
2022/10/12 00:12:34;;;;;;;5.53;1.65;;;7.80;99.90;;;;;;5049929;28;20045;-74
2022/10/12 00:15:01;;;;;;;5.82;1.55;;;7.70;99.90;;;;;;5051426;28;20105;-74
2022/10/12 00:17:27;;;;;;;10.48;2.33;;;7.80;99.90;;;;;;5051378;28;20178;-74
2022/10/12 00:19:53;;;;;;;5.93;1.88;;;7.70;99.90;;;;;;5034632;28;20519;-74
2022/10/12 00:22:19;;;;;;;4.53;1.58;;;7.70;99.90;;;;;;5032461;28;20091;-72
2022/10/12 00:24:46;;;;;;;7.28;2.00;;;7.70;99.90;;;;;;5008915;28;20150;-74
2022/10/12 00:27:14;;;;;;;3.38;1.50;;;7.70;99.90;;;;;;5034518;28;20037;-74
2022/10/12 00:30:26;;;;;;;5.10;1.60;;;7.80;99.90;;;;;;5023961;28;20044;-74
2022/10/12 00:32:33;;;;;;;5.40;1.75;;;7.70;99.90;;;;;;5013118;28;20041;-74
2022/10/12 00:34:59;;;;;;;4.70;1.70;;;7.70;99.90;;;;;;5052196;28;20111;-74
2022/10/12 00:37:25;;;;;;;6.38;2.05;;;7.70;99.90;;;;;;5033439;28;20083;-74
2022/10/12 00:39:52;;;;;;;4.22;1.15;;;7.60;99.90;;;;;;5050420;28;20032;-74
2022/10/12 00:42:19;;;;;;;3.42;1.33;;;7.60;99.90;;;;;;5050000;28;20044;-72
2022/10/12 00:44:51;;;;;;;4.22;1.35;;;7.60;99.90;;;;;;5016895;28;20045;-73
2022/10/12 00:47:23;;;;;;;3.65;1.55;;;7.60;99.90;;;;;;5047629;28;20055;-74
2022/10/12 00:50:14;;;;;;;4.85;1.48;;;7.60;99.90;;;;;;5035355;28;20041;-74
2022/10/12 00:52:57;;;;;;;6.25;2.35;;;7.60;99.90;;;;;;5025224;28;20049;-74
2022/10/12 00:55:25;;;;;;;5.28;1.92;;;7.60;99.90;;;;;;5052077;28;20087;-74
2022/10/12 00:57:54;;;;;;;5.25;1.67;;;7.60;99.90;;;;;;5034149;28;20045;-74
2022/10/12 01:00:21;;;;;;;5.15;2.00;;;7.60;99.90;;;;;;5049934;28;20071;-74
2022/10/12 01:02:50;;;;;;;3.80;1.83;;;7.60;99.90;;;;;;5033401;28;20461;-74
2022/10/12 01:05:18;;;;;;;3.53;1.60;;;7.60;99.90;;;;;;5043015;28;20037;-73
2022/10/12 01:07:45;;;;;;;7.10;2.00;;;7.60;99.90;;;;;;5028455;28;20036;-75
2022/10/12 01:10:11;;;;;;;3.45;2.05;;;7.60;99.90;;;;;;5044631;28;20040;-74
2022/10/12 01:12:40;;;;;;;5.28;1.80;;;7.60;99.90;;;;;;5051328;28;20036;-73
2022/10/12 01:15:11;;;;;;;3.88;2.25;;;7.60;99.90;;;;;;5015963;28;20858;-76
2022/10/12 01:18:01;;;;;;;4.55;2.08;;;7.60;99.90;;;;;;4922065;28;20395;-75
2022/10/12 01:20:36;;;;;;;4.85;2.08;;;7.50;99.90;;;;;;5041787;28;20056;-76
2022/10/12 01:23:17;;;;;;;5.47;2.38;;;7.60;99.90;;;;;;5034224;28;20036;-76
2022/10/12 01:25:54;;;;;;;6.40;2.67;;;7.60;99.90;;;;;;5037888;28;20042;-76
2022/10/12 01:28:38;;;;;;;8.38;2.35;;;7.60;99.90;;;;;;5042395;28;20032;-76
2022/10/12 01:31:29;;;;;;;4.35;1.95;;;7.60;99.90;;;;;;5034969;28;20047;-76
2022/10/12 01:34:33;;;;;;;7.38;2.13;;;7.60;99.90;;;;;;5034956;28;20094;-74
2022/10/12 01:37:17;;;;;;;4.53;2.10;;;7.70;99.90;;;;;;5034138;28;20105;-75
2022/10/12 01:39:54;;;;;;;4.03;2.05;;;7.70;99.90;;;;;;5042398;28;20167;-75
2022/10/12 01:42:28;;;;;;;5.97;2.25;;;7.70;99.90;;;;;;5037286;28;20044;-75
2022/10/12 01:45:06;;;;;;;4.05;2.30;;;7.80;99.90;;;;;;5037645;28;20333;-76
2022/10/12 01:47:34;;;;;;;5.53;2.65;;;7.80;99.90;;;;;;5038427;28;20072;-76
2022/10/12 01:50:03;;;;;;;6.00;2.50;;;7.80;99.90;;;;;;5037220;28;20079;-76
2022/10/12 01:53:02;;;;;;;9.27;2.78;;;7.90;99.90;;;;;;5034020;28;20052;-75
2022/10/12 01:55:41;;;;;;;5.70;2.28;;;7.90;99.90;;;;;;5040328;28;20186;-75
2022/10/12 01:58:10;;;;;;;8.52;2.45;;;7.90;99.90;;;;;;5043333;28;20041;-77
2022/10/12 02:00:58;;;;;;;7.65;2.30;;;7.90;99.90;;;;;;5036901;28;20331;-74
2022/10/12 02:03:47;;;;;;;9.30;1.88;;;7.90;99.90;;;;;;5042353;28;20067;-74
2022/10/12 02:06:21;;;;;;;4.40;1.90;;;8.00;99.90;;;;;;5039466;28;20569;-75
2022/10/12 02:09:06;;;;;;;3.63;1.83;;;8.00;99.90;;;;;;5037819;28;20041;-74
2022/10/12 02:11:36;;;;;;;5.57;3.10;;;8.00;99.90;;;;;;5040892;28;20048;-74
2022/10/12 02:14:15;;;;;;;3.35;1.92;;;8.00;99.90;;;;;;5044347;28;20037;-77
2022/10/12 02:17:03;;;;;;;3.47;1.77;;;7.90;99.90;;;;;;5041279;28;20110;-78
2022/10/12 02:19:33;;;;;;;4.78;2.28;;;7.90;99.90;;;;;;5027958;28;20053;-75
2022/10/12 02:22:03;;;;;;;6.55;2.13;;;7.90;99.90;;;;;;5062984;28;20124;-73
2022/10/12 02:24:31;;;;;;;5.63;2.22;;;7.90;99.90;;;;;;5065821;28;20111;-73
2022/10/12 02:26:59;;;;;;;4.97;2.30;;;7.90;99.90;;;;;;5064045;28;20045;-73
2022/10/12 02:29:36;;;;;;;7.53;3.03;;;7.90;99.90;;;;;;5077642;22;20134;-75
2022/10/12 02:32:39;;;;;;;4.93;2.17;;;7.90;99.90;;;;;;5043924;28;20166;-75
2022/10/12 02:35:11;;;;;;;4.25;2.30;;;7.90;99.90;;;;;;5044296;28;20045;-75
2022/10/12 02:37:50;;;;;;;3.83;2.20;;;7.90;99.90;;;;;;5020113;28;20120;-75
2022/10/12 02:40:22;;;;;;;5.47;2.28;;;7.90;99.90;;;;;;5041837;28;20049;-75
2022/10/12 02:43:05;;;;;;;7.80;2.28;;;7.90;99.90;;;;;;5043557;28;20048;-75
2022/10/12 02:45:33;;;;;;;6.18;2.20;;;7.90;99.90;;;;;;5042190;28;20395;-75
2022/10/12 02:47:59;;;;;;;3.75;1.92;;;7.80;99.90;;;;;;5044364;28;20490;-75
2022/10/12 02:50:26;;;;;;;4.70;2.15;;;7.90;99.90;;;;;;5053154;28;20047;-75
2022/10/12 02:52:52;;;;;;;8.95;1.98;;;7.90;99.90;;;;;;5043688;28;20045;-75
2022/10/12 02:55:17;;;;;;;5.35;2.10;;;7.90;99.90;;;;;;5042562;28;20041;-75
2022/10/12 02:57:43;;;;;;;5.03;2.42;;;7.90;99.90;;;;;;5047120;28;20136;-75
2022/10/12 03:00:10;;;;;;;4.20;2.23;;;7.90;99.90;;;;;;5047048;28;20090;-75
2022/10/12 03:02:35;;;;;;;4.93;1.98;;;7.90;99.90;;;;;;5048552;28;20401;-75
2022/10/12 03:05:01;;;;;;;7.67;2.07;;;7.80;99.90;;;;;;5042636;28;20041;-75
2022/10/12 03:07:27;;;;;;;7.37;2.80;;;7.80;99.90;;;;;;5041657;28;20173;-75
2022/10/12 03:09:52;;;;;;;4.43;2.17;;;7.80;99.90;;;;;;5052114;28;20125;-75
2022/10/12 03:12:18;;;;;;;6.83;2.80;;;7.80;99.90;;;;;;5019224;28;20038;-74
2022/10/12 03:14:43;;;;;;;3.20;1.90;;;7.90;99.90;;;;;;5041324;28;20041;-76
2022/10/12 03:17:09;;;;;;;8.40;2.67;;;7.90;99.90;;;;;;5040870;28;20088;-74
2022/10/12 03:19:37;;;;;;;5.63;2.57;;;7.90;99.90;;;;;;5037446;28;20037;-75
2022/10/12 03:22:02;;;;;;;8.57;2.72;;;7.90;99.90;;;;;;5044586;28;20029;-75
2022/10/12 03:24:28;;;;;;;9.60;2.27;;;7.90;99.90;;;;;;5047871;28;20132;-75
2022/10/12 03:26:54;;;;;;;6.27;2.33;;;7.90;99.90;;;;;;5037577;28;20512;-75
2022/10/12 03:29:19;;;;;;;4.60;2.00;;;7.90;99.90;;;;;;5042725;28;20487;-75
2022/10/12 03:31:45;;;;;;;5.30;2.40;;;7.80;99.90;;;;;;5042507;28;20078;-75
2022/10/12 03:34:10;;;;;;;8.73;2.17;;;7.90;99.90;;;;;;5043246;28;20548;-77
2022/10/12 03:36:36;;;;;;;6.70;2.80;;;7.90;99.90;;;;;;5038207;28;20249;-76
2022/10/12 03:39:02;;;;;;;6.00;1.97;;;7.90;99.90;;;;;;5061284;28;20608;-76
2022/10/12 03:41:28;;;;;;;7.32;1.98;;;7.90;99.90;;;;;;5041235;28;20295;-76
2022/10/12 03:43:53;;;;;;;9.80;1.90;;;7.90;99.90;;;;;;5051590;28;20086;-76
2022/10/12 03:46:19;;;;;;;6.40;2.43;;;7.90;99.90;;;;;;5044000;28;20069;-76
2022/10/12 03:48:44;;;;;;;7.53;1.93;;;7.90;99.90;;;;;;5041929;28;20457;-76
2022/10/12 03:51:10;;;;;;;7.07;2.30;;;7.90;99.90;;;;;;5048950;28;20044;-76
2022/10/12 03:53:36;;;;;;;4.17;1.80;;;7.90;99.90;;;;;;5046416;28;20060;-76
2022/10/12 03:56:01;;;;;;;10.27;2.03;;;7.90;99.90;;;;;;5042666;28;20304;-76
2022/10/12 03:58:27;;;;;;;3.97;1.60;;;7.90;99.90;;;;;;5041802;28;20468;-76
2022/10/12 04:00:53;;;;;;;6.57;2.20;;;7.90;99.90;;;;;;5057150;28;20080;-76
2022/10/12 04:03:19;;;;;;;3.00;1.92;;;7.90;99.90;;;;;;5052041;28;20419;-75
2022/10/12 04:05:52;;;;;;;4.20;1.90;;;7.90;99.90;;;;;;5057986;28;20067;-75
2022/10/12 04:08:18;;;;;;;4.43;1.92;;;7.90;99.90;;;;;;5027945;28;20045;-75
2022/10/12 04:10:44;;;;;;;6.68;2.05;;;7.90;99.90;;;;;;5052226;28;20375;-75
2022/10/12 04:13:09;;;;;;;4.03;2.13;;;7.90;99.90;;;;;;5047826;28;20043;-75
2022/10/12 04:15:35;;;;;;;5.07;2.33;;;7.90;99.90;;;;;;5051738;28;20037;-75
2022/10/12 04:18:01;;;;;;;4.93;2.25;;;7.90;99.90;;;;;;5043367;28;20036;-76
2022/10/12 04:20:27;;;;;;;4.50;2.20;;;7.90;99.90;;;;;;5043431;28;20040;-76
2022/10/12 04:22:52;;;;;;;5.53;1.73;;;7.90;99.90;;;;;;5044142;28;20033;-75
2022/10/12 04:25:18;;;;;;;6.87;2.03;;;7.90;99.90;;;;;;5051098;28;20037;-75
2022/10/12 04:27:44;;;;;;;3.80;2.03;;;7.90;99.90;;;;;;5043005;28;20063;-76
2022/10/12 04:30:10;;;;;;;5.60;2.00;;;7.90;99.90;;;;;;5042109;28;20045;-76
2022/10/12 04:32:36;;;;;;;8.35;2.72;;;7.90;99.90;;;;;;5041195;28;20044;-76
2022/10/12 04:35:02;;;;;;;6.73;2.00;;;7.90;99.90;;;;;;5049964;28;20063;-76
2022/10/12 04:37:27;;;;;;;6.77;2.10;;;7.80;99.90;;;;;;5045408;28;20040;-76
2022/10/12 04:39:53;;;;;;;6.90;2.20;;;7.90;99.90;;;;;;5056345;28;20045;-76
2022/10/12 04:42:19;;;;;;;6.10;2.17;;;7.90;99.90;;;;;;5044183;28;20503;-76
2022/10/12 04:44:47;;;;;;;9.57;1.70;;;7.90;99.90;;;;;;5055619;28;20124;-76
2022/10/12 04:47:12;;;;;;;3.43;1.97;;;7.90;99.90;;;;;;5041412;28;20190;-76
2022/10/12 04:49:38;;;;;;;4.90;1.70;;;7.90;99.90;;;;;;5046500;28;20057;-76
2022/10/12 04:52:04;;;;;;;6.00;1.83;;;7.90;99.90;;;;;;5046951;28;20481;-76
2022/10/12 04:54:32;;;;;;;5.60;1.90;;;7.90;99.90;;;;;;5043906;28;20231;-75
2022/10/12 04:56:58;;;;;;;5.40;2.05;;;7.90;99.90;;;;;;5021429;28;20093;-75
2022/10/12 04:59:23;;;;;;;5.53;2.53;;;7.90;99.90;;;;;;5046097;28;20184;-75
2022/10/12 05:01:49;;;;;;;5.90;2.43;;;7.90;99.90;;;;;;5045209;28;20048;-75
2022/10/12 05:04:15;;;;;;;5.73;2.70;;;7.90;99.90;;;;;;5039060;28;20633;-75
2022/10/12 05:06:41;;;;;;;6.93;2.30;;;7.90;99.90;;;;;;5035442;28;20285;-76
2022/10/12 05:09:06;;;;;;;8.40;2.80;;;7.90;99.90;;;;;;5039179;28;20674;-76
2022/10/12 05:11:32;;;;;;;7.33;2.40;;;7.90;99.90;;;;;;5046856;28;20052;-76
2022/10/12 05:13:58;;;;;;;9.10;2.27;;;7.90;99.90;;;;;;5046490;28;20055;-76
2022/10/12 05:16:23;;;;;;;6.63;1.93;;;7.90;99.90;;;;;;5041835;28;20662;-76
2022/10/12 05:18:49;;;;;;;9.83;2.40;;;7.90;99.90;;;;;;5044883;28;20175;-76
2022/10/12 05:21:15;;;;;;;6.73;2.93;;;7.90;99.90;;;;;;5043944;28;20286;-75
2022/10/12 05:23:40;;;;;;;6.50;2.33;;;7.90;99.90;;;;;;5043656;28;20049;-76
2022/10/12 05:26:06;;;;;;;6.93;2.97;;;7.90;99.90;;;;;;5042337;28;20568;-76
2022/10/12 05:28:31;;;;;;;6.63;2.63;;;7.90;99.90;;;;;;5050305;28;20056;-76
2022/10/12 05:30:59;;;;;;;6.88;2.85;;;7.90;99.90;;;;;;5041933;28;20074;-76
2022/10/12 05:33:24;;;;;;;5.55;2.38;;;7.90;99.90;;;;;;5042407;28;20101;-76
2022/10/12 05:35:50;;;;;;;7.83;2.93;;;7.90;99.90;;;;;;5058100;28;20465;-76
2022/10/12 05:38:16;;;;;;;7.00;2.53;;;7.90;99.90;;;;;;5037095;28;20094;-76
2022/10/12 05:40:42;;;;;;;6.43;2.10;;;7.80;99.90;;;;;;5037010;28;20061;-77
2022/10/12 05:43:08;;;;;;;7.30;2.65;;;7.90;99.90;;;;;;5044762;28;20029;-79
2022/10/12 05:45:33;;;;;;;9.27;2.90;;;7.80;99.90;;;;;;5040287;28;20144;-79
2022/10/12 05:47:59;;;;;;;15.50;4.50;;;7.80;99.90;;;;;;5040462;28;20399;-77
2022/10/12 05:50:24;;;;;;;24.20;6.30;;;7.80;99.90;;;;;;5040964;28;20520;-77
2022/10/12 05:52:50;;;;;;;32.53;9.07;;;7.70;99.90;;;;;;5045710;28;20041;-78
2022/10/12 05:55:16;;;;;;;28.67;8.43;;;7.70;99.90;;;;;;5061346;28;20043;-78
2022/10/12 05:57:41;;;;;;;25.50;7.33;;;7.70;99.90;;;;;;5039533;28;20052;-78
2022/10/12 06:00:08;;;;;;;21.93;6.50;;;7.70;99.90;;;;;;5051579;28;20281;-78
2022/10/12 06:02:33;;;;;;;;;;;7.60;99.90;;;;;;5044749;28;20091;-79
2022/10/12 06:04:59;;;;;;;18.85;5.10;;;7.70;99.90;;;;;;5042787;28;19964;-75
2022/10/12 06:07:25;;;;;;;18.98;4.55;;;7.60;99.90;;;;;;5040674;28;20032;-77
2022/10/12 06:09:51;;;;;;;15.27;4.33;;;7.60;99.90;;;;;;5048318;28;20043;-76
2022/10/12 06:12:17;;;;;;;14.07;4.17;;;7.50;99.90;;;;;;5039640;28;20402;-78
2022/10/12 06:14:42;;;;;;;12.20;3.83;;;7.60;99.90;;;;;;5040439;28;20512;-77
2022/10/12 06:17:08;;;;;;;13.37;4.23;;;7.50;99.90;;;;;;5042513;28;20044;-76
2022/10/12 06:19:35;;;;;;;14.33;3.93;;;7.50;99.90;;;;;;5044582;28;20121;-77
2022/10/12 06:22:01;;;;;;;7.85;3.30;;;7.50;99.90;;;;;;5044728;28;20060;-75
2022/10/12 06:24:26;;;;;;;9.35;3.22;;;7.50;99.90;;;;;;5046984;28;20049;-77
2022/10/12 06:26:52;;;;;;;7.35;3.30;;;7.50;99.90;;;;;;5048026;28;20028;-77
2022/10/12 06:29:18;;;;;;;9.77;3.57;;;7.40;99.90;;;;;;5048696;28;20136;-76
2022/10/12 06:31:44;;;;;;;12.98;4.95;;;7.40;99.90;;;;;;5041300;28;20146;-77
2022/10/12 06:34:09;;;;;;;10.03;3.70;;;7.40;99.90;;;;;;5043344;28;20234;-77
2022/10/12 06:36:35;;;;;;;9.67;3.70;;;7.50;99.90;;;;;;5042470;28;20152;-77
2022/10/12 06:39:00;;;;;;;12.30;4.20;;;7.40;99.90;;;;;;5045973;28;20120;-77
2022/10/12 06:41:26;;;;;;;7.83;3.23;;;7.40;99.90;;;;;;5028833;28;20049;-77
2022/10/12 06:43:52;;;;;;;11.37;4.33;;;7.40;99.90;;;;;;5043186;28;20127;-77
2022/10/12 06:46:17;;;;;;;12.23;4.30;;;7.50;99.90;;;;;;5049872;28;20124;-77
2022/10/12 06:48:43;;;;;;;15.33;4.77;;;7.50;99.90;;;;;;5041234;28;20041;-77
2022/10/12 06:51:08;;;;;;;11.13;3.93;;;7.50;99.90;;;;;;5050595;28;20121;-76
2022/10/12 06:53:35;;;;;;;14.70;4.03;;;7.50;99.90;;;;;;5045448;28;20310;-77
2022/10/12 06:56:07;;;;;;;;;;;7.50;99.90;;;;;;5027919;28;20509;-76
2022/10/12 06:58:33;;;;;;;6.65;3.63;;;7.60;99.90;;;;;;5043798;28;19924;-77
2022/10/12 07:01:04;;;;;;;11.87;4.00;;;7.60;99.90;;;;;;5042875;28;20056;-76
2022/10/12 07:03:31;;;;;;;8.38;3.53;;;7.60;99.90;;;;;;5046654;28;20130;-76
2022/10/12 07:06:11;;;;;;;5.95;3.42;;;7.70;99.90;;;;;;5045663;28;20048;-76
2022/10/12 07:08:37;;;;;;;7.88;3.25;;;7.80;99.90;;;;;;5046595;28;20259;-76
2022/10/12 07:11:05;;;;;;;7.15;3.55;;;7.80;99.90;;;;;;5046811;28;20494;-76
2022/10/12 07:13:31;;;;;;;10.65;3.53;;;7.80;99.90;;;;;;5043843;28;20093;-77
2022/10/12 07:15:57;;;;;;;10.70;3.70;;;7.90;99.90;;;;;;5039921;28;20367;-76
2022/10/12 07:18:23;;;;;;;17.77;4.87;;;7.90;99.90;;;;;;5042930;28;20044;-77
2022/10/12 07:20:49;;;;;;;8.50;3.70;;;7.90;99.90;;;;;;5041933;28;20219;-76
2022/10/12 07:23:15;;;;;;;11.25;3.47;;;8.00;99.90;;;;;;5041183;28;20294;-76
2022/10/12 07:25:47;;;;;;;8.20;3.53;;;8.00;99.90;;;;;;5050930;28;20041;-77
2022/10/12 07:28:12;;;;;;;8.25;3.53;;;8.10;99.90;;;;;;5061266;28;20084;-76
2022/10/12 07:30:38;;;;;;;8.17;3.50;;;8.10;99.90;;;;;;5043812;28;20395;-76
2022/10/12 07:33:03;;;;;;;13.33;3.77;;;8.10;99.90;;;;;;5026295;28;20227;-76
2022/10/12 07:35:29;;;;;;;9.37;4.23;;;8.10;99.90;;;;;;5045624;28;20479;-77
2022/10/12 07:37:55;;;;;;;7.03;3.20;;;8.20;99.90;;;;;;5047839;28;20036;-76
2022/10/12 07:40:20;;;;;;;10.73;3.97;;;8.20;99.90;;;;;;5044272;28;20033;-76
2022/10/12 07:42:46;;;;;;;11.17;3.80;;;8.30;99.90;;;;;;5047105;28;20029;-76
2022/10/12 07:45:11;;;;;;;7.67;2.80;;;8.30;99.90;;;;;;5049560;28;20049;-77
2022/10/12 07:47:37;;;;;;;5.30;3.20;;;8.30;99.90;;;;;;5046588;28;20047;-76
2022/10/12 07:50:03;;;;;;;10.43;3.13;;;8.40;99.90;;;;;;5041730;28;20071;-76
2022/10/12 07:52:31;;;;;;;7.88;3.10;;;8.40;99.90;;;;;;5045756;28;20499;-76
2022/10/12 07:54:56;;;;;;;5.32;3.03;;;8.50;99.90;;;;;;5043171;28;20038;-76
2022/10/12 07:57:22;;;;;;;8.33;2.93;;;8.50;99.90;;;;;;5042455;28;20376;-76
2022/10/12 07:59:48;;;;;;;12.47;2.83;;;8.60;99.90;;;;;;5052489;28;20584;-76
2022/10/12 08:02:13;;;;;;;10.83;2.87;;;8.70;99.90;;;;;;5040722;28;20095;-76
2022/10/12 08:04:39;;;;;;;9.33;2.30;;;8.70;99.90;;;;;;5043109;28;20086;-76
2022/10/12 08:07:04;;;;;;;8.23;3.27;;;8.80;99.90;;;;;;5055915;28;20277;-76
2022/10/12 08:09:30;;;;;;;6.57;2.87;;;8.80;99.90;;;;;;5026873;28;20437;-76
2022/10/12 08:11:56;;;;;;;8.57;3.17;;;8.80;99.90;;;;;;5042500;28;20037;-76
2022/10/12 08:14:22;;;;;;;7.37;3.03;;;8.90;99.90;;;;;;5043762;28;20123;-76
2022/10/12 08:16:47;;;;;;;7.47;3.07;;;9.00;99.90;;;;;;5053941;28;20076;-77
2022/10/12 08:19:13;;;;;;;10.07;2.87;;;9.00;99.90;;;;;;5042232;28;20290;-76
2022/10/12 08:21:41;;;;;;;10.63;3.22;;;9.00;99.90;;;;;;5045787;28;20617;-77
2022/10/12 08:24:08;;;;;;;9.55;2.38;;;9.00;99.90;;;;;;5048179;28;20040;-77
2022/10/12 08:26:33;;;;;;;9.48;2.85;;;9.10;99.90;;;;;;5042882;28;20041;-77
2022/10/12 08:29:01;;;;;;;8.83;3.47;;;9.10;99.90;;;;;;5047282;28;20092;-77
2022/10/12 08:31:27;;;;;;;10.90;2.70;;;9.20;99.90;;;;;;5070103;22;20127;-75
2022/10/12 08:33:52;;;;;;;10.87;2.77;;;9.30;99.90;;;;;;5066566;28;20033;-76
2022/10/12 08:36:18;;;;;;;9.63;2.97;;;9.40;99.90;;;;;;5065344;28;20116;-75
2022/10/12 08:38:47;;;;;;;16.97;3.07;;;9.40;99.90;;;;;;5048599;28;20489;-75
2022/10/12 08:41:33;;;;;;;9.20;3.22;;;9.50;99.90;;;;;;5055665;28;20106;-75
2022/10/12 08:44:24;;;;;;;10.68;2.78;;;9.60;99.90;;;;;;5053375;28;20111;-75
2022/10/12 08:46:59;;;;;;;9.48;3.10;;;9.70;99.90;;;;;;5049856;28;20598;-75
2022/10/12 08:49:27;;;;;;;11.93;2.92;;;9.80;99.90;;;;;;5049569;28;20356;-75
2022/10/12 08:51:55;;;;;;;9.05;2.63;;;9.90;99.90;;;;;;5048100;28;20055;-75
2022/10/12 08:54:47;;;;;;;6.97;2.92;;;10.00;99.90;;;;;;5055162;28;20375;-75
2022/10/12 08:57:18;;;;;;;7.05;2.45;;;10.10;99.90;;;;;;5050917;28;20078;-75
2022/10/12 08:59:45;;;;;;;7.00;2.53;;;10.20;99.90;;;;;;5062522;28;20045;-75
2022/10/12 09:02:46;;;;;;;5.30;2.60;;;10.30;99.90;;;;;;5054966;28;20080;-75
2022/10/12 09:05:22;;;;;;;8.80;2.70;;;10.40;99.90;;;;;;5056617;28;20044;-75
2022/10/12 09:07:58;;;;;;;4.97;2.10;;;10.50;99.90;;;;;;5056932;28;20144;-75
2022/10/12 09:10:37;;;;;;;7.07;2.43;;;10.60;99.90;;;;;;5046808;28;20398;-75
2022/10/12 09:13:18;;;;;;;6.07;2.30;;;10.80;99.90;;;;;;5055851;28;20258;-75
2022/10/12 09:15:58;;;;;;;8.25;1.80;;;10.90;99.90;;;;;;5051521;28;20049;-74
2022/10/12 09:18:39;;;;;;;11.00;2.22;;;11.00;99.90;;;;;;5059034;28;20036;-74
2022/10/12 09:21:10;;;;;;;9.82;2.38;;;11.10;99.90;;;;;;5049829;28;20059;-74
2022/10/12 09:23:40;;;;;;;5.13;2.10;;;11.20;99.90;;;;;;5050065;28;20557;-74
2022/10/12 09:26:20;;;;;;;7.57;2.38;;;11.30;99.90;;;;;;5053716;28;20041;-74
2022/10/12 09:28:55;;;;;;;5.30;2.28;;;11.40;99.90;;;;;;5046883;28;20111;-74
2022/10/12 09:31:36;;;;;;;5.40;2.10;;;11.60;99.90;;;;;;5058662;28;20127;-74
2022/10/12 09:34:05;;;;;;;4.28;1.90;;;11.70;99.90;;;;;;5054832;28;20115;-74
2022/10/12 09:36:34;;;;;;;8.13;2.28;;;11.80;99.90;;;;;;5053554;28;20169;-74
2022/10/12 09:39:04;;;;;;;7.88;2.08;;;11.90;99.90;;;;;;5038264;28;20117;-74
2022/10/12 09:41:39;;;;;;;6.10;2.30;;;12.00;99.90;;;;;;5054951;28;20048;-74
2022/10/12 09:44:09;;;;;;;6.60;1.67;;;12.10;99.90;;;;;;5052821;28;20029;-74
2022/10/12 09:46:41;;;;;;;12.25;2.42;;;12.30;99.90;;;;;;5055546;28;20162;-74
2022/10/12 09:49:06;;;;;;;9.02;2.10;;;12.40;99.90;;;;;;5054705;28;20293;-74
2022/10/12 09:51:32;;;;;;;10.80;2.30;;;12.50;99.90;;;;;;5049942;28;20073;-74
2022/10/12 09:54:02;;;;;;;4.18;1.92;;;12.60;99.90;;;;;;5058596;28;20037;-74
2022/10/12 09:56:29;;;;;;;12.35;2.33;;;12.70;99.90;;;;;;5054117;28;20053;-74
2022/10/12 09:59:01;;;;;;;7.88;2.03;;;12.80;99.90;;;;;;5055378;28;20037;-74
2022/10/12 10:01:32;;;;;;;6.10;1.80;;;12.90;99.90;;;;;;5048594;28;20053;-74
2022/10/12 10:04:07;;;;;;;5.53;1.90;;;13.00;99.90;;;;;;5056637;28;20045;-75
2022/10/12 10:06:35;;;;;;;7.32;2.70;;;13.10;99.90;;;;;;5060919;28;20044;-75
2022/10/12 10:09:00;;;;;;;3.97;1.63;;;13.20;99.90;;;;;;5047878;28;20430;-74
2022/10/12 10:11:31;;;;;;;6.22;2.05;;;13.30;99.90;;;;;;5043487;28;20093;-74
2022/10/12 10:13:59;;;;;;;4.95;1.40;;;13.40;99.90;;;;;;5051255;28;20167;-75
2022/10/12 10:16:26;;;;;;;5.20;1.13;;;13.50;99.90;;;;;;5058361;28;20517;-74
2022/10/12 10:18:52;;;;;;;9.85;2.22;;;13.60;99.90;;;;;;5055197;28;20254;-74
2022/10/12 10:21:38;;;;;;;4.80;1.30;;;13.70;99.90;;;;;;5060035;28;20057;-75
2022/10/12 10:24:17;;;;;;;6.33;1.40;;;13.80;99.90;;;;;;5052137;28;20132;-75
2022/10/12 10:26:59;;;;;;;5.75;2.22;;;13.90;99.90;;;;;;5054078;28;20904;-74
2022/10/12 10:29:31;;;;;;;8.48;1.77;;;14.00;99.90;;;;;;5055408;28;20043;-74
2022/10/12 10:32:25;;;;;;;4.85;2.05;;;14.10;99.90;;;;;;5050378;28;20060;-77
2022/10/12 10:35:12;;;;;;;2.70;0.90;;;14.20;99.90;;;;;;5050428;28;20125;-75
2022/10/12 10:37:57;;;;;;;10.68;1.60;;;14.30;99.90;;;;;;5053080;28;20077;-75
2022/10/12 10:40:48;;;;;;;4.90;1.10;;;14.30;99.90;;;;;;5052548;28;20080;-75
2022/10/12 10:43:34;;;;;;;4.07;1.17;;;14.50;99.90;;;;;;5054694;28;20105;-74
2022/10/12 10:46:29;;;;;;;6.70;1.20;;;14.50;99.90;;;;;;5042772;28;20516;-74
2022/10/12 10:49:00;;;;;;;4.68;1.40;;;14.60;99.90;;;;;;5050533;28;20079;-74
2022/10/12 10:51:52;;;;;;;4.55;1.35;;;14.70;99.90;;;;;;5050220;28;20474;-75
2022/10/12 10:54:21;;;;;;;8.48;1.30;;;14.70;99.90;;;;;;5057101;28;20222;-74
2022/10/12 10:56:49;;;;;;;4.80;1.30;;;14.80;99.90;;;;;;5051964;28;20040;-74
2022/10/12 10:59:37;;;;;;;6.55;1.42;;;14.90;99.90;;;;;;5063497;28;20033;-74
2022/10/12 11:02:35;;;;;;;8.15;2.05;;;15.00;99.90;;;;;;5055819;28;20089;-74
2022/10/12 11:05:23;;;;;;;6.03;1.92;;;15.00;99.90;;;;;;5046257;28;20056;-74
2022/10/12 11:08:02;;;;;;;8.77;1.75;;;15.10;99.90;;;;;;5065795;28;20045;-74
2022/10/12 11:10:35;;;;;;;8.75;1.90;;;15.20;99.90;;;;;;5054120;28;20060;-74
2022/10/12 11:13:13;;;;;;;4.30;1.55;;;15.20;99.90;;;;;;5052882;28;20045;-74
2022/10/12 11:16:01;;;;;;;7.55;1.42;;;15.40;99.90;;;;;;5057593;28;20057;-74
2022/10/12 11:19:05;;;;;;;6.32;1.60;;;15.40;99.90;;;;;;5043317;28;20044;-74
2022/10/12 11:21:52;;;;;;;7.32;2.15;;;15.60;99.90;;;;;;5041943;28;20060;-74
2022/10/12 11:24:39;;;;;;;5.70;2.10;;;15.70;99.90;;;;;;5055317;28;20072;-74
2022/10/12 11:27:24;;;;;;;5.85;2.03;;;15.70;99.90;;;;;;5062177;28;20033;-74
2022/10/12 11:29:58;;;;;;;8.23;2.20;;;15.90;99.90;;;;;;5056578;28;20251;-74
2022/10/12 11:32:47;;;;;;;6.55;1.52;;;15.90;99.90;;;;;;5048867;28;20069;-74
2022/10/12 11:35:18;;;;;;;3.88;1.48;;;15.90;99.90;;;;;;5050602;28;20136;-74
2022/10/12 11:38:08;;;;;;;4.25;1.30;;;16.00;99.90;;;;;;5061806;28;20082;-74
2022/10/12 11:40:45;;;;;;;5.65;1.73;;;16.00;99.90;;;;;;5057981;28;20041;-74
2022/10/12 11:43:17;;;;;;;4.75;1.58;;;16.10;99.90;;;;;;5055689;28;20093;-74
2022/10/12 11:45:48;;;;;;;5.65;1.13;;;16.20;99.90;;;;;;5048633;28;20057;-74
2022/10/12 11:48:24;;;;;;;8.45;2.35;;;16.30;99.90;;;;;;5065456;28;20048;-75
2022/10/12 11:50:50;;;;;;;4.67;1.23;;;16.30;99.90;;;;;;5060007;28;20040;-74
2022/10/12 11:53:28;;;;;;;5.65;1.35;;;16.40;99.90;;;;;;5059535;28;20048;-74
2022/10/12 11:56:06;;;;;;;3.92;1.35;;;16.40;99.90;;;;;;5049675;28;20052;-74
2022/10/12 11:58:38;;;;;;;6.53;1.40;;;16.40;99.90;;;;;;5058202;28;20045;-74
2022/10/12 12:01:36;;;;;;;9.60;1.70;;;16.40;99.90;;;;;;5056040;28;20149;-74
2022/10/12 12:04:20;;;;;;;2.65;0.80;;;16.40;99.90;;;;;;5055053;28;20083;-74
2022/10/12 12:06:51;;;;;;;3.85;1.15;;;16.50;99.90;;;;;;5053647;28;20044;-74
2022/10/12 12:09:40;;;;;;;6.18;2.08;;;16.60;99.90;;;;;;5055773;28;20041;-74
2022/10/12 12:12:08;;;;;;;5.35;1.05;;;16.70;99.90;;;;;;5065225;28;20581;-75
2022/10/12 12:14:43;;;;;;;5.55;1.20;;;16.60;99.90;;;;;;5057542;28;20478;-75
2022/10/12 12:17:17;;;;;;;8.68;2.10;;;16.80;99.90;;;;;;5054872;28;20091;-75
2022/10/12 12:19:48;;;;;;;6.10;1.80;;;16.90;99.90;;;;;;5068794;28;20075;-75
2022/10/12 12:22:27;;;;;;;3.35;1.27;;;17.00;99.90;;;;;;5055137;28;20044;-74
2022/10/12 12:25:30;;;;;;;4.72;1.52;;;17.00;99.90;;;;;;5062043;28;20068;-75
2022/10/12 12:28:17;;;;;;;6.18;1.45;;;17.20;99.90;;;;;;5046317;28;20045;-75
2022/10/12 12:31:03;;;;;;;6.15;1.73;;;17.20;99.90;;;;;;5047446;28;20045;-74
2022/10/12 12:33:34;;;;;;;4.93;1.20;;;17.30;99.90;;;;;;5059773;28;20040;-75
2022/10/12 12:36:03;;;;;;;4.25;1.02;;;17.30;99.90;;;;;;5057757;28;20070;-75
2022/10/12 12:38:33;;;;;;;4.45;1.40;;;17.40;99.90;;;;;;5060307;28;20085;-74
2022/10/12 12:41:01;;;;;;;4.72;1.17;;;17.40;99.90;;;;;;5065358;28;20083;-73
2022/10/12 12:43:29;;;;;;;10.02;1.50;;;17.50;99.90;;;;;;5058936;28;20094;-73
2022/10/12 12:45:59;;;;;;;7.72;1.48;;;17.50;99.90;;;;;;5053635;28;20491;-74
2022/10/12 12:48:40;;;;;;;5.60;1.13;;;17.60;99.90;;;;;;5056250;28;20143;-73
2022/10/12 12:51:13;;;;;;;7.10;1.63;;;17.60;99.90;;;;;;5060722;28;20033;-73
2022/10/12 12:53:45;;;;;;;8.38;1.70;;;17.60;99.90;;;;;;5054410;28;20040;-74
2022/10/12 12:56:40;;;;;;;7.35;1.60;;;17.60;99.90;;;;;;5057900;28;20549;-73
2022/10/12 12:59:50;;;;;;;8.85;1.73;;;17.50;99.90;;;;;;5052579;28;20409;-74
2022/10/12 13:02:29;;;;;;;7.53;1.30;;;17.50;99.90;;;;;;5056807;28;20052;-73
2022/10/12 13:05:14;;;;;;;3.60;1.02;;;17.60;99.90;;;;;;5052762;28;20041;-73
2022/10/12 13:07:45;;;;;;;3.60;0.98;;;17.60;99.90;;;;;;5052437;28;20037;-73
2022/10/12 13:10:26;;;;;;;6.50;1.65;;;17.70;99.90;;;;;;5062327;28;20040;-74
2022/10/12 13:13:31;;;;;;;9.48;1.65;;;17.80;99.90;;;;;;5049845;28;20118;-73
2022/10/12 13:16:34;;;;;;;4.25;1.73;;;17.90;99.90;;;;;;5057214;28;20048;-73